sensor_id;sensor_type;location;lat;lon;timestamp;pressure;altitude;pressure_sealevel;temperature;humidity
58473;BME280;44775;51.564;5.460;2022-10-16T00:00:31;100798.63;;;11.63;100.00
58473;BME280;44775;51.564;5.460;2022-10-16T00:02:57;100796.50;;;11.58;100.00
58473;BME280;44775;51.564;5.460;2022-10-16T00:05:23;100796.00;;;11.54;100.00
58473;BME280;44775;51.564;5.460;2022-10-16T00:07:48;100787.44;;;11.59;100.00
58473;BME280;44775;51.564;5.460;2022-10-16T00:10:14;100790.28;;;11.57;100.00
58473;BME280;44775;51.564;5.460;2022-10-16T00:12:39;100779.56;;;11.57;100.00
58473;BME280;44775;51.564;5.460;2022-10-16T00:15:05;100780.13;;;11.53;100.00
58473;BME280;44775;51.564;5.460;2022-10-16T00:17:31;100795.00;;;11.55;100.00
58473;BME280;44775;51.564;5.460;2022-10-16T00:19:56;100791.66;;;11.53;100.00
58473;BME280;44775;51.564;5.460;2022-10-16T00:22:22;100799.31;;;11.56;100.00
58473;BME280;44775;51.564;5.460;2022-10-16T00:24:47;100788.34;;;11.51;100.00
58473;BME280;44775;51.564;5.460;2022-10-16T00:27:13;100798.56;;;11.48;100.00
58473;BME280;44775;51.564;5.460;2022-10-16T00:29:38;100797.41;;;11.42;100.00
58473;BME280;44775;51.564;5.460;2022-10-16T00:32:04;100794.06;;;11.40;100.00
58473;BME280;44775;51.564;5.460;2022-10-16T00:34:29;100792.75;;;11.36;100.00
58473;BME280;44775;51.564;5.460;2022-10-16T00:36:54;100792.75;;;11.36;100.00
58473;BME280;44775;51.564;5.460;2022-10-16T00:39:20;100788.41;;;11.35;100.00
58473;BME280;44775;51.564;5.460;2022-10-16T00:41:46;100792.63;;;11.29;100.00
58473;BME280;44775;51.564;5.460;2022-10-16T00:49:50;100802.19;;;11.24;100.00
58473;BME280;44775;51.564;5.460;2022-10-16T00:52:16;100795.00;;;11.16;100.00
58473;BME280;44775;51.564;5.460;2022-10-16T00:54:42;100790.84;;;11.14;100.00
58473;BME280;44775;51.564;5.460;2022-10-16T00:57:08;100801.38;;;11.15;100.00
58473;BME280;44775;51.564;5.460;2022-10-16T00:59:36;100800.56;;;11.15;100.00
58473;BME280;44775;51.564;5.460;2022-10-16T01:02:04;100802.56;;;11.13;100.00
58473;BME280;44775;51.564;5.460;2022-10-16T01:04:34;100790.84;;;11.14;100.00
58473;BME280;44775;51.564;5.460;2022-10-16T01:12:42;100786.16;;;11.16;100.00
58473;BME280;44775;51.564;5.460;2022-10-16T01:21:01;100792.88;;;11.11;100.00
58473;BME280;44775;51.564;5.460;2022-10-16T01:23:38;100796.22;;;11.05;100.00
58473;BME280;44775;51.564;5.460;2022-10-16T01:26:20;100800.06;;;11.03;100.00
58473;BME280;44775;51.564;5.460;2022-10-16T01:28:57;100809.13;;;11.02;100.00
58473;BME280;44775;51.564;5.460;2022-10-16T01:31:29;100799.94;;;11.04;100.00
58473;BME280;44775;51.564;5.460;2022-10-16T01:34:03;100799.25;;;11.02;100.00
58473;BME280;44775;51.564;5.460;2022-10-16T01:36:39;100799.25;;;11.02;100.00
58473;BME280;44775;51.564;5.460;2022-10-16T01:39:10;100793.56;;;11.05;100.00
58473;BME280;44775;51.564;5.460;2022-10-16T01:41:45;100794.56;;;11.04;100.00
58473;BME280;44775;51.564;5.460;2022-10-16T01:44:19;100786.22;;;11.07;100.00
58473;BME280;44775;51.564;5.460;2022-10-16T01:46:48;100800.41;;;11.08;100.00
58473;BME280;44775;51.564;5.460;2022-10-16T01:49:15;100799.25;;;11.10;100.00
58473;BME280;44775;51.564;5.460;2022-10-16T01:51:45;100791.69;;;11.14;100.00
58473;BME280;44775;51.564;5.460;2022-10-16T01:54:13;100785.00;;;11.18;100.00
58473;BME280;44775;51.564;5.460;2022-10-16T01:56:41;100785.47;;;11.22;100.00
58473;BME280;44775;51.564;5.460;2022-10-16T01:59:13;100789.81;;;11.23;100.00
58473;BME280;44775;51.564;5.460;2022-10-16T02:01:43;100793.16;;;11.25;100.00
58473;BME280;44775;51.564;5.460;2022-10-16T02:04:20;100798.50;;;11.25;100.00
58473;BME280;44775;51.564;5.460;2022-10-16T02:06:47;100789.47;;;11.26;100.00
58473;BME280;44775;51.564;5.460;2022-10-16T02:09:13;100800.34;;;11.24;100.00
58473;BME280;44775;51.564;5.460;2022-10-16T02:11:42;100803.66;;;11.26;100.00
58473;BME280;44775;51.564;5.460;2022-10-16T02:14:07;100819.56;;;11.28;100.00
58473;BME280;44775;51.564;5.460;2022-10-16T02:16:42;100805.34;;;11.27;100.00
58473;BME280;44775;51.564;5.460;2022-10-16T02:19:09;100808.84;;;11.28;100.00
58473;BME280;44775;51.564;5.460;2022-10-16T02:21:51;100807.63;;;11.39;100.00
58473;BME280;44775;51.564;5.460;2022-10-16T02:27:20;100805.50;;;11.26;100.00
58473;BME280;44775;51.564;5.460;2022-10-16T02:29:53;100799.00;;;11.20;100.00
58473;BME280;44775;51.564;5.460;2022-10-16T02:32:28;100802.41;;;11.14;100.00
58473;BME280;44775;51.564;5.460;2022-10-16T02:34:56;100804.72;;;11.17;100.00
58473;BME280;44775;51.564;5.460;2022-10-16T02:37:23;100791.84;;;11.13;100.00
58473;BME280;44775;51.564;5.460;2022-10-16T02:39:49;100803.56;;;11.11;100.00
58473;BME280;44775;51.564;5.460;2022-10-16T02:42:17;100810.41;;;11.14;100.00
58473;BME280;44775;51.564;5.460;2022-10-16T02:44:43;100808.44;;;11.08;100.00
58473;BME280;44775;51.564;5.460;2022-10-16T02:47:09;100806.09;;;11.05;100.00
58473;BME280;44775;51.564;5.460;2022-10-16T02:49:34;100804.78;;;11.01;100.00
58473;BME280;44775;51.564;5.460;2022-10-16T02:52:00;100798.94;;;10.97;100.00
58473;BME280;44775;51.564;5.460;2022-10-16T02:54:25;100798.94;;;10.97;100.00
58473;BME280;44775;51.564;5.460;2022-10-16T02:56:51;100803.81;;;10.94;100.00
58473;BME280;44775;51.564;5.460;2022-10-16T02:59:17;100797.59;;;10.93;100.00
58473;BME280;44775;51.564;5.460;2022-10-16T03:01:42;100795.94;;;10.92;100.00
58473;BME280;44775;51.564;5.460;2022-10-16T03:04:08;100795.66;;;10.87;100.00
58473;BME280;44775;51.564;5.460;2022-10-16T03:06:34;100798.31;;;10.87;100.00
58473;BME280;44775;51.564;5.460;2022-10-16T03:08:59;100806.50;;;10.85;100.00
58473;BME280;44775;51.564;5.460;2022-10-16T03:11:25;100798.66;;;10.84;100.00
58473;BME280;44775;51.564;5.460;2022-10-16T03:13:51;100814.84;;;10.82;100.00
58473;BME280;44775;51.564;5.460;2022-10-16T03:16:17;100806.34;;;10.79;100.00
58473;BME280;44775;51.564;5.460;2022-10-16T03:18:42;100803.03;;;10.77;100.00
58473;BME280;44775;51.564;5.460;2022-10-16T03:21:08;100808.00;;;10.80;100.00
58473;BME280;44775;51.564;5.460;2022-10-16T03:23:33;100823.69;;;10.83;100.00
58473;BME280;44775;51.564;5.460;2022-10-16T03:25:58;100817.88;;;10.79;100.00
58473;BME280;44775;51.564;5.460;2022-10-16T03:28:24;100822.53;;;10.85;100.00
58473;BME280;44775;51.564;5.460;2022-10-16T03:30:49;100828.72;;;10.86;100.00
58473;BME280;44775;51.564;5.460;2022-10-16T03:33:15;100836.91;;;10.84;100.00
58473;BME280;44775;51.564;5.460;2022-10-16T03:35:40;100833.22;;;10.85;100.00
58473;BME280;44775;51.564;5.460;2022-10-16T03:38:06;100836.09;;;10.84;100.00
58473;BME280;44775;51.564;5.460;2022-10-16T03:40:31;100841.44;;;10.84;100.00
58473;BME280;44775;51.564;5.460;2022-10-16T03:42:57;100835.91;;;10.85;100.00
58473;BME280;44775;51.564;5.460;2022-10-16T03:45:23;100847.56;;;10.93;100.00
58473;BME280;44775;51.564;5.460;2022-10-16T03:47:49;100839.06;;;10.89;100.00
58473;BME280;44775;51.564;5.460;2022-10-16T03:50:14;100835.72;;;10.95;100.00
58473;BME280;44775;51.564;5.460;2022-10-16T03:52:40;100838.72;;;10.92;100.00
58473;BME280;44775;51.564;5.460;2022-10-16T03:55:06;100836.72;;;10.94;100.00
58473;BME280;44775;51.564;5.460;2022-10-16T03:57:32;100848.25;;;10.95;100.00
58473;BME280;44775;51.564;5.460;2022-10-16T03:59:57;100848.25;;;10.95;100.00
58473;BME280;44775;51.564;5.460;2022-10-16T04:02:23;100851.06;;;11.01;100.00
58473;BME280;44775;51.564;5.460;2022-10-16T04:04:48;100845.38;;;10.96;100.00
58473;BME280;44775;51.564;5.460;2022-10-16T04:07:14;100854.75;;;11.00;100.00
58473;BME280;44775;51.564;5.460;2022-10-16T04:09:39;100853.25;;;10.98;100.00
58473;BME280;44775;51.564;5.460;2022-10-16T04:12:05;100850.06;;;11.02;100.00
58473;BME280;44775;51.564;5.460;2022-10-16T04:14:30;100849.41;;;11.00;100.00
58473;BME280;44775;51.564;5.460;2022-10-16T04:16:56;100853.41;;;11.04;100.00
58473;BME280;44775;51.564;5.460;2022-10-16T04:19:21;100853.22;;;11.06;100.00
58473;BME280;44775;51.564;5.460;2022-10-16T04:21:46;100855.75;;;11.07;100.00
58473;BME280;44775;51.564;5.460;2022-10-16T04:24:12;100856.91;;;11.05;100.00
58473;BME280;44775;51.564;5.460;2022-10-16T04:26:37;100863.63;;;11.01;100.00
58473;BME280;44775;51.564;5.460;2022-10-16T04:29:03;100864.09;;;11.04;100.00
58473;BME280;44775;51.564;5.460;2022-10-16T04:31:29;100861.09;;;11.07;100.00
58473;BME280;44775;51.564;5.460;2022-10-16T04:33:54;100850.88;;;11.03;100.00
58473;BME280;44775;51.564;5.460;2022-10-16T04:36:20;100857.44;;;11.00;100.00
58473;BME280;44775;51.564;5.460;2022-10-16T04:38:45;100863.09;;;11.05;100.00
58473;BME280;44775;51.564;5.460;2022-10-16T04:41:10;100868.59;;;11.12;100.00
58473;BME280;44775;51.564;5.460;2022-10-16T04:43:36;100867.75;;;11.03;100.00
58473;BME280;44775;51.564;5.460;2022-10-16T04:46:01;100872.78;;;11.06;100.00
58473;BME280;44775;51.564;5.460;2022-10-16T04:48:30;100879.66;;;11.01;100.00
58473;BME280;44775;51.564;5.460;2022-10-16T04:50:55;100885.00;;;11.01;100.00
58473;BME280;44775;51.564;5.460;2022-10-16T04:53:21;100888.31;;;11.03;100.00
58473;BME280;44775;51.564;5.460;2022-10-16T04:55:46;100889.00;;;10.97;100.00
58473;BME280;44775;51.564;5.460;2022-10-16T04:58:12;100890.84;;;10.96;100.00
58473;BME280;44775;51.564;5.460;2022-10-16T05:00:37;100883.50;;;10.98;100.00
58473;BME280;44775;51.564;5.460;2022-10-16T05:03:03;100902.22;;;10.98;100.00
58473;BME280;44775;51.564;5.460;2022-10-16T05:05:33;100904.41;;;10.95;100.00
58473;BME280;44775;51.564;5.460;2022-10-16T05:07:58;100915.41;;;11.00;100.00
58473;BME280;44775;51.564;5.460;2022-10-16T05:10:24;100905.56;;;11.00;100.00
58473;BME280;44775;51.564;5.460;2022-10-16T05:12:49;100914.09;;;11.04;100.00
58473;BME280;44775;51.564;5.460;2022-10-16T05:15:16;100912.25;;;11.04;100.00
58473;BME280;44775;51.564;5.460;2022-10-16T05:17:41;100919.41;;;11.12;100.00
58473;BME280;44775;51.564;5.460;2022-10-16T05:20:07;100915.22;;;11.09;100.00
58473;BME280;44775;51.564;5.460;2022-10-16T05:22:32;100909.53;;;11.13;100.00
58473;BME280;44775;51.564;5.460;2022-10-16T05:24:58;100904.72;;;11.08;100.00
58473;BME280;44775;51.564;5.460;2022-10-16T05:27:23;100911.41;;;11.04;100.00
58473;BME280;44775;51.564;5.460;2022-10-16T05:29:49;100915.41;;;11.00;100.00
58473;BME280;44775;51.564;5.460;2022-10-16T05:32:16;100927.78;;;11.01;100.00
58473;BME280;44775;51.564;5.460;2022-10-16T05:34:42;100932.47;;;10.99;100.00
58473;BME280;44775;51.564;5.460;2022-10-16T05:37:08;100932.31;;;10.92;100.00
58473;BME280;44775;51.564;5.460;2022-10-16T05:39:33;100940.81;;;10.96;100.00
58473;BME280;44775;51.564;5.460;2022-10-16T05:41:59;100945.34;;;10.95;100.00
58473;BME280;44775;51.564;5.460;2022-10-16T05:44:24;100954.38;;;10.94;100.00
58473;BME280;44775;51.564;5.460;2022-10-16T05:46:50;100960.22;;;10.98;100.00
58473;BME280;44775;51.564;5.460;2022-10-16T05:49:15;100965.22;;;10.93;100.00
58473;BME280;44775;51.564;5.460;2022-10-16T05:51:41;100976.91;;;10.92;100.00
58473;BME280;44775;51.564;5.460;2022-10-16T05:54:07;100978.09;;;10.89;100.00
58473;BME280;44775;51.564;5.460;2022-10-16T05:56:33;100983.78;;;10.94;100.00
58473;BME280;44775;51.564;5.460;2022-10-16T05:58:58;100987.13;;;10.88;100.00
58473;BME280;44775;51.564;5.460;2022-10-16T06:01:24;100987.44;;;10.93;100.00
58473;BME280;44775;51.564;5.460;2022-10-16T06:03:53;101001.16;;;10.90;100.00
58473;BME280;44775;51.564;5.460;2022-10-16T06:06:24;100990.94;;;10.85;100.00
58473;BME280;44775;51.564;5.460;2022-10-16T06:08:51;100997.47;;;10.91;100.00
58473;BME280;44775;51.564;5.460;2022-10-16T06:11:19;101001.16;;;10.90;100.00
58473;BME280;44775;51.564;5.460;2022-10-16T06:13:49;101004.16;;;10.87;100.00
58473;BME280;44775;51.564;5.460;2022-10-16T06:16:14;101008.19;;;10.91;100.00
58473;BME280;44775;51.564;5.460;2022-10-16T06:18:40;101019.53;;;10.93;100.00
58473;BME280;44775;51.564;5.460;2022-10-16T06:21:11;101024.88;;;10.85;100.00
58473;BME280;44775;51.564;5.460;2022-10-16T06:23:37;101021.19;;;10.86;100.00
58473;BME280;44775;51.564;5.460;2022-10-16T06:26:06;101030.56;;;10.82;100.00
58473;BME280;44775;51.564;5.460;2022-10-16T06:28:32;101036.59;;;10.84;100.00
58473;BME280;44775;51.564;5.460;2022-10-16T06:31:02;101029.38;;;10.84;100.00
58473;BME280;44775;51.564;5.460;2022-10-16T06:33:28;101029.53;;;10.83;100.00
58473;BME280;44775;51.564;5.460;2022-10-16T06:35:53;101038.75;;;10.80;100.00
58473;BME280;44775;51.564;5.460;2022-10-16T06:38:19;101039.41;;;10.82;100.00
58473;BME280;44775;51.564;5.460;2022-10-16T06:40:44;101047.59;;;10.81;100.00
58473;BME280;44775;51.564;5.460;2022-10-16T06:43:09;101050.28;;;10.81;100.00
58473;BME280;44775;51.564;5.460;2022-10-16T06:45:35;101045.25;;;10.78;100.00
58473;BME280;44775;51.564;5.460;2022-10-16T06:48:00;101052.28;;;10.87;100.00
58473;BME280;44775;51.564;5.460;2022-10-16T06:50:26;101059.81;;;10.92;100.00
58473;BME280;44775;51.564;5.460;2022-10-16T06:52:51;101061.31;;;10.94;100.00
58473;BME280;44775;51.564;5.460;2022-10-16T06:55:16;101064.50;;;10.98;100.00
58473;BME280;44775;51.564;5.460;2022-10-16T06:57:43;101070.00;;;11.04;100.00
58473;BME280;44775;51.564;5.460;2022-10-16T07:00:09;101077.03;;;11.05;100.00
58473;BME280;44775;51.564;5.460;2022-10-16T07:02:34;101081.72;;;11.11;100.00
58473;BME280;44775;51.564;5.460;2022-10-16T07:05:00;101081.72;;;11.20;100.00
58473;BME280;44775;51.564;5.460;2022-10-16T07:07:25;101080.03;;;11.27;100.00
58473;BME280;44775;51.564;5.460;2022-10-16T07:09:52;101083.88;;;11.32;100.00
58473;BME280;44775;51.564;5.460;2022-10-16T07:12:17;101095.09;;;11.44;100.00
58473;BME280;44775;51.564;5.460;2022-10-16T07:14:43;101094.41;;;11.50;100.00
58473;BME280;44775;51.564;5.460;2022-10-16T07:17:08;101107.13;;;11.56;100.00
58473;BME280;44775;51.564;5.460;2022-10-16T07:19:34;101097.91;;;11.67;100.00
58473;BME280;44775;51.564;5.460;2022-10-16T07:22:00;101106.44;;;11.71;100.00
58473;BME280;44775;51.564;5.460;2022-10-16T07:24:25;101102.75;;;11.80;100.00
58473;BME280;44775;51.564;5.460;2022-10-16T07:26:51;101112.97;;;11.93;100.00
58473;BME280;44775;51.564;5.460;2022-10-16T07:29:19;101126.16;;;12.02;100.00
58473;BME280;44775;51.564;5.460;2022-10-16T07:31:45;101132.66;;;12.16;100.00
58473;BME280;44775;51.564;5.460;2022-10-16T07:34:12;101142.34;;;12.25;100.00
58473;BME280;44775;51.564;5.460;2022-10-16T07:36:38;101138.78;;;12.33;100.00
58473;BME280;44775;51.564;5.460;2022-10-16T07:39:04;101142.25;;;12.42;100.00
58473;BME280;44775;51.564;5.460;2022-10-16T07:41:29;101142.59;;;12.47;100.00
58473;BME280;44775;51.564;5.460;2022-10-16T07:43:55;101143.66;;;12.69;100.00
58473;BME280;44775;51.564;5.460;2022-10-16T07:46:25;101148.22;;;12.99;100.00
58473;BME280;44775;51.564;5.460;2022-10-16T07:48:51;101155.25;;;13.23;100.00
58473;BME280;44775;51.564;5.460;2022-10-16T07:51:19;101166.31;;;13.52;100.00
58473;BME280;44775;51.564;5.460;2022-10-16T07:53:45;101154.16;;;13.93;100.00
58473;BME280;44775;51.564;5.460;2022-10-16T07:56:11;101169.50;;;14.08;100.00
58473;BME280;44775;51.564;5.460;2022-10-16T07:58:37;101176.16;;;14.27;100.00
58473;BME280;44775;51.564;5.460;2022-10-16T08:01:04;101175.25;;;14.49;100.00
58473;BME280;44775;51.564;5.460;2022-10-16T08:03:30;101167.19;;;14.49;100.00
58473;BME280;44775;51.564;5.460;2022-10-16T08:05:57;101179.56;;;14.58;99.19
58473;BME280;44775;51.564;5.460;2022-10-16T08:08:22;101189.53;;;14.50;100.00
58473;BME280;44775;51.564;5.460;2022-10-16T08:10:48;101192.63;;;14.61;100.00
58473;BME280;44775;51.564;5.460;2022-10-16T08:13:13;101201.78;;;14.82;99.19
58473;BME280;44775;51.564;5.460;2022-10-16T08:15:41;101198.78;;;15.06;96.60
58473;BME280;44775;51.564;5.460;2022-10-16T08:18:06;101205.50;;;15.17;95.70
58473;BME280;44775;51.564;5.460;2022-10-16T08:20:32;101208.47;;;15.22;96.43
58473;BME280;44775;51.564;5.460;2022-10-16T08:23:01;101230.47;;;15.26;93.42
58473;BME280;44775;51.564;5.460;2022-10-16T08:25:27;101225.41;;;15.38;94.95
58473;BME280;44775;51.564;5.460;2022-10-16T08:27:53;101222.41;;;15.26;95.55
58473;BME280;44775;51.564;5.460;2022-10-16T08:30:20;101231.22;;;15.56;94.53
58473;BME280;44775;51.564;5.460;2022-10-16T08:32:46;101224.28;;;15.68;91.89
58473;BME280;44775;51.564;5.460;2022-10-16T08:35:13;101238.22;;;15.72;92.12
58473;BME280;44775;51.564;5.460;2022-10-16T08:37:39;101240.09;;;15.99;92.49
58473;BME280;44775;51.564;5.460;2022-10-16T08:40:06;101253.56;;;16.21;89.80
58473;BME280;44775;51.564;5.460;2022-10-16T08:45:39;101254.72;;;16.40;89.35
58473;BME280;44775;51.564;5.460;2022-10-16T08:50:30;101258.59;;;16.59;86.16
58473;BME280;44775;51.564;5.460;2022-10-16T08:52:57;101258.13;;;16.83;84.47
58473;BME280;44775;51.564;5.460;2022-10-16T08:55:42;101264.44;;;16.97;84.77
58473;BME280;44775;51.564;5.460;2022-10-16T08:58:17;101257.22;;;17.11;82.60
58473;BME280;44775;51.564;5.460;2022-10-16T09:00:47;101273.47;;;17.24;83.47
58473;BME280;44775;51.564;5.460;2022-10-16T09:08:56;101281.56;;;18.12;76.03
58473;BME280;44775;51.564;5.460;2022-10-16T09:16:58;101288.84;;;18.05;74.85
58473;BME280;44775;51.564;5.460;2022-10-16T09:19:31;101289.50;;;18.27;75.72
58473;BME280;44775;51.564;5.460;2022-10-16T09:22:04;101295.09;;;18.32;72.88
58473;BME280;44775;51.564;5.460;2022-10-16T09:24:36;101298.22;;;18.22;71.96
58473;BME280;44775;51.564;5.460;2022-10-16T09:27:02;101303.84;;;18.21;71.46
58473;BME280;44775;51.564;5.460;2022-10-16T09:29:27;101307.38;;;18.21;72.42
58473;BME280;44775;51.564;5.460;2022-10-16T09:31:54;101301.56;;;18.37;72.35
58473;BME280;44775;51.564;5.460;2022-10-16T09:34:34;101301.13;;;18.74;73.23
58473;BME280;44775;51.564;5.460;2022-10-16T09:37:04;101304.00;;;18.85;71.38
58473;BME280;44775;51.564;5.460;2022-10-16T09:39:45;101310.53;;;19.29;71.17
58473;BME280;44775;51.564;5.460;2022-10-16T09:42:15;101307.03;;;19.16;67.62
58473;BME280;44775;51.564;5.460;2022-10-16T09:44:41;101301.22;;;19.57;66.33
58473;BME280;44775;51.564;5.460;2022-10-16T09:47:18;101313.44;;;19.79;67.88
58473;BME280;44775;51.564;5.460;2022-10-16T09:49:58;101311.59;;;19.73;67.88
58473;BME280;44775;51.564;5.460;2022-10-16T09:52:28;101313.00;;;19.44;66.26
58473;BME280;44775;51.564;5.460;2022-10-16T09:54:59;101306.91;;;19.49;68.59
58473;BME280;44775;51.564;5.460;2022-10-16T09:57:25;101311.94;;;19.45;64.24
58473;BME280;44775;51.564;5.460;2022-10-16T09:59:58;101312.91;;;19.57;66.27
58473;BME280;44775;51.564;5.460;2022-10-16T10:02:43;101322.78;;;19.84;67.71
58473;BME280;44775;51.564;5.460;2022-10-16T10:05:22;101313.13;;;19.94;64.37
58473;BME280;44775;51.564;5.460;2022-10-16T10:07:55;101316.06;;;20.18;64.79
58473;BME280;44775;51.564;5.460;2022-10-16T10:10:32;101323.78;;;20.46;63.91
58473;BME280;44775;51.564;5.460;2022-10-16T10:12:59;101327.88;;;20.30;61.39
58473;BME280;44775;51.564;5.460;2022-10-16T10:15:25;101328.59;;;19.49;63.52
58473;BME280;44775;51.564;5.460;2022-10-16T10:17:57;101325.00;;;19.68;63.75
58473;BME280;44775;51.564;5.460;2022-10-16T10:20:28;101335.28;;;19.91;62.63
58473;BME280;44775;51.564;5.460;2022-10-16T10:22:55;101341.34;;;20.43;62.16
58473;BME280;44775;51.564;5.460;2022-10-16T10:25:43;101339.63;;;20.74;60.23
58473;BME280;44775;51.564;5.460;2022-10-16T10:31:06;101343.41;;;20.23;63.87
58473;BME280;44775;51.564;5.460;2022-10-16T10:39:01;101359.69;;;21.35;58.68
58473;BME280;44775;51.564;5.460;2022-10-16T10:46:51;101348.69;;;20.68;61.24
58473;BME280;44775;51.564;5.460;2022-10-16T10:50:01;101355.66;;;21.19;59.02
58473;BME280;44775;51.564;5.460;2022-10-16T10:55:09;101351.31;;;21.85;55.01
58473;BME280;44775;51.564;5.460;2022-10-16T11:00:28;101357.03;;;22.07;54.99
58473;BME280;44775;51.564;5.460;2022-10-16T11:05:46;101367.53;;;22.22;54.06
58473;BME280;44775;51.564;5.460;2022-10-16T11:08:21;101367.31;;;22.35;53.53
58473;BME280;44775;51.564;5.460;2022-10-16T11:16:39;101373.63;;;22.05;52.99
58473;BME280;44775;51.564;5.460;2022-10-16T11:21:47;101363.16;;;23.38;50.36
58473;BME280;44775;51.564;5.460;2022-10-16T11:27:17;101354.22;;;24.79;45.85
58473;BME280;44775;51.564;5.460;2022-10-16T11:30:05;101361.66;;;24.16;44.98
58473;BME280;44775;51.564;5.460;2022-10-16T11:33:20;101356.31;;;23.36;46.57
58473;BME280;44775;51.564;5.460;2022-10-16T11:35:43;101364.09;;;23.84;47.70
58473;BME280;44775;51.564;5.460;2022-10-16T11:38:38;101365.13;;;24.40;46.29
58473;BME280;44775;51.564;5.460;2022-10-16T11:41:24;101355.69;;;24.19;45.46
58473;BME280;44775;51.564;5.460;2022-10-16T11:46:51;101371.69;;;23.82;45.59
58473;BME280;44775;51.564;5.460;2022-10-16T11:49:22;101371.03;;;22.87;47.41
58473;BME280;44775;51.564;5.460;2022-10-16T11:54:54;101368.78;;;23.08;47.04
58473;BME280;44775;51.564;5.460;2022-10-16T11:57:29;101374.47;;;23.58;46.73
58473;BME280;44775;51.564;5.460;2022-10-16T12:00:09;101374.78;;;23.33;44.58
58473;BME280;44775;51.564;5.460;2022-10-16T12:02:49;101383.75;;;23.05;47.14
58473;BME280;44775;51.564;5.460;2022-10-16T12:08:09;101369.41;;;23.50;46.98
58473;BME280;44775;51.564;5.460;2022-10-16T12:10:36;101363.06;;;23.21;46.25
58473;BME280;44775;51.564;5.460;2022-10-16T12:18:37;101380.72;;;22.06;49.03
58473;BME280;44775;51.564;5.460;2022-10-16T12:21:04;101376.94;;;22.73;48.44
58473;BME280;44775;51.564;5.460;2022-10-16T12:23:32;101379.50;;;23.38;47.02
58473;BME280;44775;51.564;5.460;2022-10-16T12:26:00;101382.75;;;24.04;44.91
58473;BME280;44775;51.564;5.460;2022-10-16T12:28:31;101373.66;;;24.15;43.75
58473;BME280;44775;51.564;5.460;2022-10-16T12:31:05;101382.88;;;24.60;43.71
58473;BME280;44775;51.564;5.460;2022-10-16T12:33:36;101388.03;;;24.73;42.41
58473;BME280;44775;51.564;5.460;2022-10-16T12:36:30;101384.38;;;24.34;43.94
58473;BME280;44775;51.564;5.460;2022-10-16T12:38:57;101390.69;;;23.77;43.80
58473;BME280;44775;51.564;5.460;2022-10-16T12:41:32;101385.91;;;23.32;45.07
58473;BME280;44775;51.564;5.460;2022-10-16T12:44:00;101384.72;;;22.34;46.83
58473;BME280;44775;51.564;5.460;2022-10-16T12:54:02;101366.09;;;22.19;50.75
58473;BME280;44775;51.564;5.460;2022-10-16T13:02:17;101364.97;;;23.21;47.10
58473;BME280;44775;51.564;5.460;2022-10-16T13:10:31;101362.38;;;24.74;42.96
58473;BME280;44775;51.564;5.460;2022-10-16T13:19:37;101380.84;;;22.77;44.30
58473;BME280;44775;51.564;5.460;2022-10-16T13:21:35;101374.16;;;21.96;47.01
58473;BME280;44775;51.564;5.460;2022-10-16T13:26:49;101369.44;;;21.42;50.11
58473;BME280;44775;51.564;5.460;2022-10-16T13:29:18;101376.66;;;21.30;50.94
58473;BME280;44775;51.564;5.460;2022-10-16T13:31:45;101377.50;;;21.31;52.05
58473;BME280;44775;51.564;5.460;2022-10-16T13:34:16;101379.94;;;21.39;51.41
58473;BME280;44775;51.564;5.460;2022-10-16T13:36:48;101390.47;;;21.29;51.66
58473;BME280;44775;51.564;5.460;2022-10-16T13:39:26;101391.66;;;21.33;51.01
58473;BME280;44775;51.564;5.460;2022-10-16T13:44:48;101389.03;;;21.08;50.70
58473;BME280;44775;51.564;5.460;2022-10-16T13:47:20;101395.22;;;21.15;50.54
58473;BME280;44775;51.564;5.460;2022-10-16T13:49:46;101390.41;;;21.17;51.61
58473;BME280;44775;51.564;5.460;2022-10-16T13:52:20;101395.97;;;21.22;51.58
58473;BME280;44775;51.564;5.460;2022-10-16T13:54:46;101387.91;;;21.15;52.44
58473;BME280;44775;51.564;5.460;2022-10-16T13:57:16;101385.69;;;21.06;51.68
58473;BME280;44775;51.564;5.460;2022-10-16T13:59:42;101390.38;;;20.98;52.32
58473;BME280;44775;51.564;5.460;2022-10-16T14:04:52;101387.06;;;20.96;52.54
58473;BME280;44775;51.564;5.460;2022-10-16T14:07:24;101401.09;;;20.68;53.23
58473;BME280;44775;51.564;5.460;2022-10-16T14:09:51;101391.09;;;20.69;52.58
58473;BME280;44775;51.564;5.460;2022-10-16T14:12:17;101386.38;;;20.58;53.08
58473;BME280;44775;51.564;5.460;2022-10-16T14:14:45;101395.41;;;20.45;54.40
58473;BME280;44775;51.564;5.460;2022-10-16T14:17:24;101395.13;;;20.28;53.87
58473;BME280;44775;51.564;5.460;2022-10-16T14:19:54;101391.97;;;19.99;56.44
58473;BME280;44775;51.564;5.460;2022-10-16T14:22:40;101398.75;;;19.77;56.54
58473;BME280;44775;51.564;5.460;2022-10-16T14:25:25;101388.84;;;19.64;57.16
58473;BME280;44775;51.564;5.460;2022-10-16T14:30:24;101379.63;;;19.65;57.73
58473;BME280;44775;51.564;5.460;2022-10-16T14:33:24;101392.75;;;19.75;57.67
58473;BME280;44775;51.564;5.460;2022-10-16T14:38:36;101389.97;;;19.23;59.10
58473;BME280;44775;51.564;5.460;2022-10-16T14:41:03;101375.38;;;19.31;58.79
58473;BME280;44775;51.564;5.460;2022-10-16T14:43:33;101367.66;;;19.28;59.00
58473;BME280;44775;51.564;5.460;2022-10-16T14:46:01;101367.25;;;19.24;59.83
58473;BME280;44775;51.564;5.460;2022-10-16T14:48:27;101367.47;;;19.23;59.51
58473;BME280;44775;51.564;5.460;2022-10-16T14:50:53;101374.28;;;19.39;59.63
58473;BME280;44775;51.564;5.460;2022-10-16T14:53:19;101379.25;;;19.48;60.17